createdAt,value
2022-10-05T00:05:01.326Z,99520.61
2022-10-05T00:10:14.308Z,99514.07
2022-10-05T00:15:19.177Z,99506.60
2022-10-05T00:20:26.855Z,99497.98
2022-10-05T00:25:29.078Z,99492.08
2022-10-05T00:30:34.208Z,99483.41
2022-10-05T00:35:36.617Z,99482.70
2022-10-05T00:40:58.775Z,99476.84
2022-10-05T00:46:09.623Z,99475.02
2022-10-05T00:51:26.875Z,99458.64
2022-10-05T00:56:50.145Z,99446.36
2022-10-05T01:02:00.556Z,99425.44
2022-10-05T01:07:22.395Z,99425.02
2022-10-05T01:12:36.320Z,99422.54
2022-10-05T01:17:49.659Z,99421.45
2022-10-05T01:23:09.285Z,99409.45
2022-10-05T01:28:55.538Z,99408.76
2022-10-05T01:34:19.415Z,99426.39
2022-10-05T01:39:37.089Z,99431.23
2022-10-05T01:45:05.810Z,99421.35
2022-10-05T01:50:13.992Z,99415.70
2022-10-05T01:55:40.836Z,99406.34
2022-10-05T02:01:14.781Z,99403.16
2022-10-05T02:06:30.141Z,99400.98
2022-10-05T02:11:34.232Z,99389.86
2022-10-05T02:16:42.271Z,99384.41
2022-10-05T02:21:49.061Z,99376.58
2022-10-05T02:26:52.883Z,99374.06
2022-10-05T02:32:00.555Z,99377.27
2022-10-05T02:37:12.255Z,99390.08
2022-10-05T02:42:22.466Z,99386.16
2022-10-05T02:47:48.776Z,99388.48
2022-10-05T02:54:51.168Z,99409.40
2022-10-05T02:59:09.201Z,99403.02
2022-10-05T03:04:26.873Z,99402.55
2022-10-05T03:09:36.363Z,99414.67
2022-10-05T03:14:48.037Z,99428.30
2022-10-05T03:20:21.609Z,99441.13
2022-10-05T03:25:48.326Z,99446.45
2022-10-05T03:31:03.194Z,99444.64
2022-10-05T03:36:29.154Z,99448.34
2022-10-05T03:42:07.493Z,99442.40
2022-10-05T03:47:27.795Z,99428.98
2022-10-05T03:52:42.839Z,99412.83
2022-10-05T03:57:47.448Z,99397.61
2022-10-05T04:02:57.151Z,99387.32
2022-10-05T04:08:31.450Z,99377.11
2022-10-05T04:14:18.946Z,99374.39
2022-10-05T04:19:44.250Z,99388.44
2022-10-05T04:24:54.236Z,99403.70
2022-10-05T04:30:09.097Z,99413.96
2022-10-05T04:35:17.967Z,99414.73
2022-10-05T04:40:35.946Z,99415.55
2022-10-05T04:46:12.583Z,99399.21
2022-10-05T04:51:28.550Z,99398.04
2022-10-05T04:56:59.660Z,99395.90
2022-10-05T05:02:13.797Z,99379.79
2022-10-05T05:07:35.465Z,99374.03
2022-10-05T05:12:57.832Z,99379.08
2022-10-05T05:18:28.166Z,99390.75
2022-10-05T05:23:50.511Z,99384.83
2022-10-05T05:29:17.692Z,99385.04
2022-10-05T05:34:38.074Z,99405.00
2022-10-05T05:39:57.156Z,99414.85
2022-10-05T05:45:15.960Z,99400.28
2022-10-05T05:50:24.393Z,99393.09
2022-10-05T05:55:33.074Z,99396.69
2022-10-05T06:00:45.924Z,99395.38
2022-10-05T06:05:52.452Z,99403.97
2022-10-05T06:11:25.521Z,99406.70
2022-10-05T06:16:39.426Z,99392.52
2022-10-05T06:21:56.392Z,99385.60
2022-10-05T06:27:13.855Z,99375.61
2022-10-05T06:32:38.500Z,99384.02
2022-10-05T06:38:05.988Z,99394.11
2022-10-05T06:44:02.497Z,99406.77
2022-10-05T06:49:31.607Z,99407.75
2022-10-05T06:55:13.211Z,99413.25
2022-10-05T07:00:24.861Z,99400.73
2022-10-05T07:05:38.161Z,99398.29
2022-10-05T07:11:04.004Z,99390.80
2022-10-05T07:16:13.718Z,99385.57
2022-10-05T07:22:00.658Z,99387.99
2022-10-05T07:27:20.214Z,99401.70
2022-10-05T07:32:38.915Z,99396.20
2022-10-05T07:37:54.511Z,99386.45
2022-10-05T07:43:40.296Z,99377.27
2022-10-05T07:49:31.145Z,99388.01
2022-10-05T07:54:51.965Z,99388.05
2022-10-05T07:59:55.077Z,99393.84
2022-10-05T08:05:27.589Z,99400.20
2022-10-05T08:10:56.370Z,99408.47
2022-10-05T08:16:03.213Z,99414.87
2022-10-05T08:21:11.866Z,99421.42
2022-10-05T08:26:41.066Z,99413.41
2022-10-05T08:31:48.659Z,99405.35
2022-10-05T08:36:57.186Z,99404.50
2022-10-05T08:42:50.952Z,99411.58
2022-10-05T08:48:07.582Z,99409.24
2022-10-05T08:53:34.458Z,99411.66
2022-10-05T08:58:45.213Z,99411.73
2022-10-05T09:04:30.328Z,99410.95
2022-10-05T09:09:56.262Z,99407.75
2022-10-05T09:15:24.866Z,99404.76
2022-10-05T09:20:34.474Z,99405.17
2022-10-05T09:25:47.976Z,99402.05
2022-10-05T09:31:12.669Z,99397.02
2022-10-05T09:36:36.195Z,99402.08
2022-10-05T09:42:02.197Z,99405.29
2022-10-05T09:47:26.107Z,99406.69
2022-10-05T09:52:53.972Z,99407.20
2022-10-05T09:58:12.165Z,99403.70
2022-10-05T10:03:43.222Z,99393.01
2022-10-05T10:09:16.091Z,99404.13
2022-10-05T10:15:24.048Z,99422.41
2022-10-05T10:20:38.420Z,99435.11
2022-10-05T10:26:08.036Z,99437.11
2022-10-05T10:31:41.001Z,99432.79
2022-10-05T10:37:19.181Z,99429.98
2022-10-05T10:42:33.606Z,99421.39
2022-10-05T10:47:53.142Z,99414.54
2022-10-05T10:53:13.970Z,99413.31
2022-10-05T10:58:53.328Z,99413.45
2022-10-05T11:04:16.907Z,99407.58
2022-10-05T11:10:01.343Z,99409.52
2022-10-05T11:15:33.988Z,99411.52
2022-10-05T11:20:58.999Z,99405.06
2022-10-05T11:26:19.207Z,99411.05
2022-10-05T11:31:46.032Z,99408.15
2022-10-05T11:37:20.002Z,99406.41
2022-10-05T11:42:50.694Z,99399.52
2022-10-05T11:48:29.942Z,99393.05
2022-10-05T11:54:03.076Z,99394.16
2022-10-05T11:59:17.575Z,99385.21
2022-10-05T12:04:53.592Z,99381.04
2022-10-05T12:10:32.618Z,99375.93
2022-10-05T12:15:48.478Z,99364.14
2022-10-05T12:21:04.931Z,99351.59
2022-10-05T12:26:12.421Z,99342.75
2022-10-05T12:31:25.893Z,99334.84
2022-10-05T12:37:03.545Z,99324.89
2022-10-05T12:42:19.426Z,99323.10
2022-10-05T12:47:36.960Z,99315.67
2022-10-05T12:52:57.526Z,99307.80
2022-10-05T12:58:33.090Z,99310.35
2022-10-05T13:03:42.083Z,99317.63
2022-10-05T13:08:50.794Z,99319.10
2022-10-05T13:14:23.562Z,99316.25
2022-10-05T13:19:35.768Z,99320.00
2022-10-05T13:25:04.117Z,99308.82
2022-10-05T13:30:16.662Z,99303.55
2022-10-05T13:35:48.639Z,99297.93
2022-10-05T13:41:15.265Z,99299.61
2022-10-05T13:46:37.630Z,99300.88
2022-10-05T13:52:10.791Z,99294.48
2022-10-05T13:57:35.015Z,99289.64
2022-10-05T14:02:40.332Z,99288.20
2022-10-05T14:07:53.241Z,99279.20
2022-10-05T14:12:55.873Z,99264.40
2022-10-05T14:17:58.761Z,99266.68
2022-10-05T14:23:17.374Z,99271.84
2022-10-05T14:28:39.650Z,99268.36
2022-10-05T14:33:41.997Z,99279.73
2022-10-05T14:38:55.363Z,99274.20
2022-10-05T14:44:09.651Z,99272.35
2022-10-05T14:49:21.134Z,99280.23
2022-10-05T14:54:43.840Z,99278.48
2022-10-05T14:59:48.462Z,99276.04
2022-10-05T15:05:16.657Z,99269.78
2022-10-05T15:10:33.055Z,99269.96
2022-10-05T15:16:03.986Z,99265.96
2022-10-05T15:21:48.150Z,99263.59
2022-10-05T15:26:59.656Z,99256.08
2022-10-05T15:32:23.326Z,99252.32
2022-10-05T15:37:33.129Z,99247.77
2022-10-05T15:42:49.616Z,99244.52
2022-10-05T15:48:29.486Z,99244.06
2022-10-05T15:53:42.266Z,99246.69
2022-10-05T15:58:50.408Z,99247.20
2022-10-05T16:04:15.263Z,99249.11
2022-10-05T16:09:34.731Z,99241.67
2022-10-05T16:14:56.707Z,99232.57
2022-10-05T16:20:25.589Z,99227.75
2022-10-05T16:25:54.369Z,99235.52
2022-10-05T16:31:08.311Z,99231.00
2022-10-05T16:36:22.758Z,99237.17
2022-10-05T16:41:42.796Z,99238.88
2022-10-05T16:46:48.704Z,99233.63
2022-10-05T16:51:59.308Z,99229.60
2022-10-05T16:57:21.569Z,99231.11
2022-10-05T17:02:36.485Z,99233.17
2022-10-05T17:08:08.653Z,99231.21
2022-10-05T17:13:48.356Z,99233.21
2022-10-05T17:19:09.127Z,99234.37
2022-10-05T17:24:21.935Z,99237.38
2022-10-05T17:29:54.786Z,99235.73
2022-10-05T17:35:00.635Z,99238.44
2022-10-05T17:40:30.308Z,99227.36
2022-10-05T17:45:32.020Z,99222.83
2022-10-05T17:51:07.447Z,99229.52
2022-10-05T17:56:15.804Z,99236.83
2022-10-05T18:01:38.722Z,99246.73
2022-10-05T18:06:52.961Z,99248.11
2022-10-05T18:12:10.509Z,99247.64
2022-10-05T18:17:13.819Z,99244.88
2022-10-05T18:22:15.697Z,99235.98
2022-10-05T18:27:34.301Z,99237.83
2022-10-05T18:32:47.300Z,99243.23
2022-10-05T18:38:27.766Z,99246.30
2022-10-05T18:44:08.778Z,99257.48
2022-10-05T18:49:36.257Z,99256.33
2022-10-05T18:54:55.126Z,99262.76
2022-10-05T19:00:18.297Z,99254.73
2022-10-05T19:05:47.367Z,99253.56
2022-10-05T19:10:55.753Z,99257.09
2022-10-05T19:16:22.647Z,99263.01
2022-10-05T19:21:46.296Z,99269.50
2022-10-05T19:26:53.991Z,99271.21
2022-10-05T19:32:36.408Z,99271.23
2022-10-05T19:38:27.392Z,99269.71
2022-10-05T19:44:02.574Z,99268.76
2022-10-05T19:49:09.507Z,99271.70
2022-10-05T19:54:25.254Z,99266.55
2022-10-05T19:59:31.443Z,99267.02
2022-10-05T20:04:40.678Z,99265.51
2022-10-05T20:10:23.211Z,99265.80
2022-10-05T20:15:47.149Z,99274.20
2022-10-05T20:20:50.187Z,99276.14
2022-10-05T20:26:11.829Z,99278.48
2022-10-05T20:31:23.851Z,99274.73
2022-10-05T20:36:26.075Z,99272.18
2022-10-05T20:41:27.909Z,99272.30
2022-10-05T20:46:31.110Z,99271.58
2022-10-05T20:51:33.072Z,99274.40
2022-10-05T20:56:35.425Z,99274.11
2022-10-05T21:01:48.016Z,99280.65
2022-10-05T21:06:50.326Z,99274.30
2022-10-05T21:11:53.100Z,99276.36
2022-10-05T21:16:54.952Z,99274.23
2022-10-05T21:22:07.535Z,99274.86
2022-10-05T21:27:10.360Z,99277.14
2022-10-05T21:32:12.170Z,99276.96
2022-10-05T21:37:15.594Z,99279.46
2022-10-05T21:42:17.366Z,99273.86
2022-10-05T21:47:19.103Z,99275.94
2022-10-05T21:52:21.920Z,99274.44
2022-10-05T21:57:23.766Z,99268.17
2022-10-05T22:02:25.507Z,99270.84
2022-10-05T22:07:29.141Z,99273.64
2022-10-05T22:12:32.318Z,99275.58
2022-10-05T22:17:34.292Z,99273.89
2022-10-05T22:22:36.320Z,99272.13
2022-10-05T22:27:38.535Z,99273.29
2022-10-05T22:32:41.222Z,99272.38
2022-10-05T22:37:42.941Z,99274.52
2022-10-05T22:42:44.767Z,99275.69
2022-10-05T22:47:46.536Z,99280.52
2022-10-05T22:52:52.606Z,99277.55
2022-10-05T22:57:54.456Z,99284.65
2022-10-05T23:02:56.632Z,99294.02
2022-10-05T23:07:59.132Z,99294.29
2022-10-05T23:13:01.911Z,99301.40
2022-10-05T23:18:03.792Z,99303.41
2022-10-05T23:23:06.059Z,99320.89
2022-10-05T23:28:08.164Z,99325.89
2022-10-05T23:33:14.096Z,99321.21
2022-10-05T23:38:15.863Z,99323.64
2022-10-05T23:43:18.094Z,99326.67
2022-10-05T23:48:20.278Z,99332.33
2022-10-05T23:53:23.096Z,99339.75
2022-10-05T23:58:25.418Z,99345.44
